Time;durP1;ratioP1;P1;durP2;ratioP2;P2;SDS_P1;SDS_P2;PMS_P1;PMS_P2;Temp;Humidity;BMP_temperature;BMP_pressure;BME280_temperature;BME280_humidity;BME280_pressure;Samples;Min_cycle;Max_cycle;Signal;HPM_P1;HPM_P2
2022/04/25 00:01:03;;;;;;;;;19.67;19.67;;;;;16.16;50.51;100048.19;4877455;29;47063;-85
2022/04/25 00:03:29;;;;;;;;;20.00;19.00;;;;;16.26;50.17;100056.03;4879125;29;44851;-84
2022/04/25 00:05:54;;;;;;;;;24.00;21.33;;;;;16.24;50.49;100050.72;4894931;29;45449;-84
2022/04/25 00:08:20;;;;;;;;;20.33;20.33;;;;;16.32;50.17;100058.59;4895875;29;44833;-84
2022/04/25 00:10:46;;;;;;;;;23.67;21.00;;;;;16.36;49.91;100055.84;4878517;29;47725;-85
2022/04/25 00:13:13;;;;;;;;;19.67;19.67;;;;;16.31;50.29;100057.72;4893563;29;44871;-85
2022/04/25 00:15:40;;;;;;;;;23.00;19.67;;;;;16.25;50.35;100046.22;4878230;29;45448;-85
2022/04/25 00:18:06;;;;;;;;;23.00;21.33;;;;;16.18;50.38;100049.03;4893079;29;44934;-86
2022/04/25 00:20:32;;;;;;;;;17.33;16.33;;;;;16.18;50.63;100050.84;4894359;29;45485;-86
2022/04/25 00:23:04;;;;;;;;;18.67;17.33;;;;;16.26;51.46;100059.63;4876878;29;45456;-85
2022/04/25 00:25:32;;;;;;;;;20.33;18.00;;;;;16.05;50.84;100039.44;4873645;29;45401;-84
2022/04/25 00:27:59;;;;;;;;;25.67;22.33;;;;;16.15;50.75;100058.94;4873616;29;45426;-84
2022/04/25 00:30:24;;;;;;;;;21.33;19.33;;;;;16.06;50.57;100041.25;4889989;29;47279;-84
2022/04/25 00:32:50;;;;;;;;;19.33;15.67;;;;;16.12;51.04;100054.53;4890059;29;45484;-84
2022/04/25 00:35:16;;;;;;;;;18.67;18.67;;;;;16.04;50.98;100048.44;4873219;29;45414;-84
2022/04/25 00:37:41;;;;;;;;;15.67;14.67;;;;;16.04;50.65;100055.56;4890982;29;45422;-85
2022/04/25 00:40:08;;;;;;;;;21.33;18.00;;;;;16.10;50.48;100053.66;4874806;29;48046;-84
2022/04/25 00:42:34;;;;;;;;;17.33;17.33;;;;;15.96;50.85;100047.69;4893200;28;45303;-85
2022/04/25 00:45:00;;;;;;;;;19.00;18.00;;;;;15.95;50.52;100048.59;4891220;29;45338;-84
2022/04/25 00:47:27;;;;;;;;;22.33;17.67;;;;;16.11;50.87;100062.59;4909000;29;45340;-85
2022/04/25 00:49:53;;;;;;;;;19.33;19.33;;;;;15.99;50.72;100050.31;4912320;29;45493;-85
2022/04/25 00:52:19;;;;;;;;;22.00;17.33;;;;;15.98;50.69;100048.56;4895288;29;45500;-85
2022/04/25 00:54:44;;;;;;;;;16.00;15.33;;;;;15.95;51.11;100052.16;4893535;29;45970;-84
2022/04/25 00:57:11;;;;;;;;;18.00;17.33;;;;;15.95;50.64;100062.88;4910957;29;45388;-85
2022/04/25 00:59:37;;;;;;;;;23.67;21.33;;;;;15.90;50.91;100061.22;4909700;29;45474;-85
2022/04/25 01:02:05;;;;;;;;;17.67;16.00;;;;;15.82;50.36;100047.06;4895344;29;44960;-85
2022/04/25 01:04:31;;;;;;;;;16.67;16.00;;;;;15.88;50.51;100052.31;4895770;29;45525;-84
2022/04/25 01:06:56;;;;;;;;;19.67;16.33;;;;;15.84;50.50;100048.81;4894596;29;45415;-85
2022/04/25 01:09:24;;;;;;;;;22.00;18.00;;;;;15.90;50.29;100053.19;4892739;29;46647;-84
2022/04/25 01:11:49;;;;;;;;;21.00;17.00;;;;;15.92;50.21;100059.41;4910481;28;45473;-84
2022/04/25 01:14:17;;;;;;;;;23.00;21.33;;;;;16.02;50.21;100060.97;4892627;29;45482;-85
2022/04/25 01:16:45;;;;;;;;;19.00;19.00;;;;;16.04;50.32;100067.22;4908486;29;44918;-84
2022/04/25 01:19:11;;;;;;;;;17.67;17.00;;;;;15.90;50.52;100062.09;4908939;29;45414;-85
2022/04/25 01:21:50;;;;;;;;;16.67;14.00;;;;;15.85;50.93;100053.25;4872424;29;44949;-85
2022/04/25 01:27:16;;;;;;;;;20.00;18.67;;;;;15.63;51.09;100052.72;4894917;29;44822;-84
2022/04/25 01:29:43;;;;;;;;;15.33;15.33;;;;;15.55;51.29;100049.28;4892353;29;45878;-83
2022/04/25 01:32:09;;;;;;;;;15.00;14.33;;;;;15.53;51.34;100046.66;4895460;29;45422;-84
2022/04/25 01:34:39;;;;;;;;;19.33;18.00;;;;;15.46;51.60;100050.34;4895424;29;45848;-84
2022/04/25 01:37:09;;;;;;;;;16.67;15.00;;;;;15.44;51.97;100049.47;4893896;29;44846;-85
2022/04/25 01:39:49;;;;;;;;;19.67;16.00;;;;;15.47;51.61;100045.84;4877397;29;47117;-84
2022/04/25 01:42:16;;;;;;;;;20.33;18.67;;;;;15.34;52.08;100067.50;4895283;29;45428;-85
2022/04/25 01:44:49;;;;;;;;;15.67;15.67;;;;;15.24;51.81;100065.00;4878448;29;44741;-84
2022/04/25 01:47:15;;;;;;;;;18.00;17.00;;;;;15.19;52.13;100068.63;4891963;28;45785;-85
2022/04/25 01:49:40;;;;;;;;;18.33;18.33;;;;;15.10;52.92;100065.22;4911747;28;45394;-84
2022/04/25 01:52:18;;;;;;;;;11.00;10.33;;;;;15.06;52.80;100071.53;4911437;28;45347;-86
2022/04/25 01:54:43;;;;;;;;;14.33;13.33;;;;;14.98;52.81;100067.16;4892971;28;45440;-84
2022/04/25 01:57:09;;;;;;;;;20.00;18.00;;;;;14.99;53.43;100076.97;4909348;29;45620;-84
2022/04/25 01:59:35;;;;;;;;;21.33;19.00;;;;;14.90;53.41;100082.44;4893103;29;46931;-85
2022/04/25 02:02:03;;;;;;;;;20.00;16.67;;;;;14.94;53.18;100084.16;4896463;28;45475;-84
2022/04/25 02:04:29;;;;;;;;;17.33;16.33;;;;;14.89;53.63;100085.16;4894991;28;45447;-85
2022/04/25 02:06:56;;;;;;;;;9.67;9.67;;;;;14.75;54.98;100091.59;4895315;28;45185;-84
2022/04/25 02:09:21;;;;;;;;;14.00;12.33;;;;;14.72;54.00;100098.75;4894789;28;47394;-85
2022/04/25 02:11:47;;;;;;;;;17.00;16.33;;;;;14.71;53.63;100097.00;4898626;28;45395;-84
2022/04/25 02:14:14;;;;;;;;;18.33;15.33;;;;;14.72;53.96;100104.13;4897613;28;45391;-85
2022/04/25 02:16:40;;;;;;;;;19.33;14.33;;;;;14.65;54.34;100099.78;4898584;28;45395;-85
2022/04/25 02:19:06;;;;;;;;;16.00;15.33;;;;;14.62;55.49;100103.34;4914321;28;45243;-85
2022/04/25 02:21:31;;;;;;;;;17.00;10.00;;;;;14.55;55.16;100097.16;4912714;28;44976;-85
2022/04/25 02:23:57;;;;;;;;;19.33;14.67;;;;;14.52;54.64;100097.22;4898318;29;45537;-85
2022/04/25 02:26:23;;;;;;;;;15.67;14.33;;;;;14.55;54.94;100094.47;4898007;28;44925;-85
2022/04/25 02:28:50;;;;;;;;;11.67;11.67;;;;;14.65;55.56;100102.44;4878984;29;48178;-84
2022/04/25 02:31:17;;;;;;;;;17.33;17.33;;;;;14.55;55.34;100098.97;4881921;29;45364;-85
2022/04/25 02:33:43;;;;;;;;;15.00;11.67;;;;;14.54;54.75;100097.16;4880944;29;44753;-85
2022/04/25 02:36:09;;;;;;;;;19.00;17.33;;;;;14.52;55.05;100096.31;4881627;29;44815;-84
2022/04/25 02:38:36;;;;;;;;;14.00;14.00;;;;;14.53;56.81;100093.63;4881687;29;45650;-84
2022/04/25 02:41:05;;;;;;;;;13.00;11.33;;;;;14.49;55.75;100086.53;4897994;29;45454;-84
2022/04/25 02:43:32;;;;;;;;;14.67;14.00;;;;;14.52;57.31;100086.50;4897805;28;45425;-84
2022/04/25 02:45:58;;;;;;;;;21.67;19.00;;;;;14.49;56.01;100089.22;4875682;28;45533;-85
2022/04/25 02:48:23;;;;;;;;;16.67;12.33;;;;;14.55;56.28;100091.81;4861574;29;47355;-85
2022/04/25 02:50:50;;;;;;;;;22.00;19.00;;;;;14.57;57.99;100090.03;4861503;29;45473;-84
2022/04/25 02:53:15;;;;;;;;;18.67;17.00;;;;;14.52;56.26;100096.31;4861546;29;45434;-84
2022/04/25 02:55:41;;;;;;;;;18.33;16.00;;;;;14.48;56.59;100105.28;4861968;29;45420;-84
2022/04/25 02:58:09;;;;;;;;;18.33;18.33;;;;;14.53;56.39;100107.00;4879371;29;46458;-85
2022/04/25 03:00:34;;;;;;;;;17.00;14.00;;;;;14.47;56.97;100098.16;4861724;29;45297;-86
2022/04/25 03:03:00;;;;;;;;;16.50;16.00;;;;;14.48;56.52;100103.50;4846434;29;45398;-84
2022/04/25 03:05:25;;;;;;;;;18.00;18.00;;;;;14.43;57.36;100104.47;4877417;29;45481;-84
2022/04/25 03:07:51;;;;;;;;;20.33;18.00;;;;;14.35;57.35;100099.19;4860811;29;47050;-86
2022/04/25 03:10:18;;;;;;;;;19.00;17.00;;;;;14.43;58.44;100102.66;4861040;29;45405;-85
2022/04/25 03:12:43;;;;;;;;;22.67;19.33;;;;;14.33;58.74;100106.34;4874459;29;45580;-85
2022/04/25 03:15:09;;;;;;;;;20.00;18.00;;;;;14.33;58.16;100107.22;4867197;29;45387;-85
2022/04/25 03:17:34;;;;;;;;;19.67;16.67;;;;;14.27;59.18;100101.94;4891877;29;45518;-85
2022/04/25 03:20:00;;;;;;;;;23.67;19.67;;;;;14.28;58.48;100111.75;4891312;29;45433;-85
2022/04/25 03:23:02;;;;;;;;;22.33;18.00;;;;;14.45;58.22;100099.97;4874082;29;45502;-83
2022/04/25 03:25:31;;;;;;;;;21.33;18.00;;;;;14.26;59.96;100105.56;4874516;29;45643;-85
2022/04/25 03:27:57;;;;;;;;;20.00;18.00;;;;;14.27;58.57;100106.44;4892256;29;45483;-85
2022/04/25 03:30:22;;;;;;;;;22.33;19.33;;;;;14.30;58.98;100115.31;4874530;29;45853;-86
2022/04/25 03:32:48;;;;;;;;;22.00;20.00;;;;;14.23;59.62;100112.72;4874685;28;45521;-85
2022/04/25 03:35:16;;;;;;;;;17.67;16.00;;;;;14.26;59.27;100108.22;4892758;29;44878;-83
2022/04/25 03:37:44;;;;;;;;;19.33;18.67;;;;;14.29;59.66;100115.31;4891822;29;47708;-84
2022/04/25 03:40:10;;;;;;;;;23.33;17.33;;;;;14.13;59.78;100102.09;4891200;29;45282;-84
2022/04/25 03:42:37;;;;;;;;;17.67;17.67;;;;;14.16;59.28;100107.44;4890948;29;44883;-85
2022/04/25 03:45:04;;;;;;;;;18.00;18.00;;;;;14.12;61.09;100113.72;4876166;29;45452;-85
2022/04/25 03:47:31;;;;;;;;;18.67;16.33;;;;;14.02;60.54;100112.03;4893479;29;46718;-84
2022/04/25 03:49:57;;;;;;;;;21.67;19.67;;;;;14.02;60.63;100122.75;4896839;29;45831;-84
2022/04/25 03:52:22;;;;;;;;;27.33;20.33;;;;;13.83;61.83;100116.66;4897220;29;45376;-84
2022/04/25 03:57:32;;;;;;;;;18.67;18.67;;;;;13.76;62.50;100123.84;4913478;29;45801;-85
2022/04/25 03:59:57;;;;;;;;;23.33;20.67;;;;;13.67;61.64;100115.91;4912619;29;45400;-84
2022/04/25 04:02:23;;;;;;;;;25.67;25.33;;;;;13.67;62.74;100128.38;4912311;29;45786;-84
2022/04/25 04:04:49;;;;;;;;;23.67;23.33;;;;;13.57;63.12;100128.50;4912176;29;45394;-84
2022/04/25 04:07:15;;;;;;;;;20.33;18.67;;;;;13.58;64.40;100137.38;4895954;29;46562;-85
2022/04/25 04:09:46;;;;;;;;;24.33;22.33;;;;;13.44;63.67;100112.56;4899925;28;45220;-84
2022/04/25 04:12:14;;;;;;;;;25.67;24.00;;;;;13.55;63.54;100116.00;4918028;28;45371;-85
2022/04/25 04:14:41;;;;;;;;;27.00;21.67;;;;;13.55;63.40;100121.34;4899528;28;45400;-84
2022/04/25 04:17:07;;;;;;;;;27.67;25.67;;;;;13.67;62.72;100131.06;4896940;28;46936;-85
2022/04/25 04:19:38;;;;;;;;;33.00;28.00;;;;;13.62;66.44;100123.09;4913236;28;45549;-84
2022/04/25 04:22:07;;;;;;;;;29.33;28.67;;;;;13.62;64.85;100138.25;4897052;28;45440;-85
2022/04/25 04:24:34;;;;;;;;;29.67;25.67;;;;;13.43;66.59;100138.38;4914001;28;44952;-85
2022/04/25 04:27:01;;;;;;;;;33.33;27.33;;;;;13.30;65.94;100136.69;4894088;28;47297;-84
2022/04/25 04:29:31;;;;;;;;;18.33;15.33;;;;;13.27;64.73;100142.91;4908623;28;45458;-85
2022/04/25 04:32:01;;;;;;;;;25.67;23.33;;;;;13.37;66.17;100146.41;4895244;29;45847;-85
2022/04/25 04:34:27;;;;;;;;;26.67;23.33;;;;;13.27;66.24;100158.03;4911405;28;45711;-85
2022/04/25 04:36:53;;;;;;;;;29.67;25.67;;;;;13.21;66.35;100159.84;4893901;28;47193;-85
2022/04/25 04:39:19;;;;;;;;;29.67;26.33;;;;;13.24;65.80;100164.28;4913717;28;45441;-85
2022/04/25 04:41:45;;;;;;;;;25.33;24.00;;;;;13.24;67.51;100166.06;4915715;28;45518;-85
2022/04/25 04:44:11;;;;;;;;;33.67;29.00;;;;;13.30;65.86;100174.09;4915906;29;45482;-85
2022/04/25 04:46:36;;;;;;;;;29.33;24.33;;;;;13.34;65.50;100171.38;4896417;28;46841;-85
2022/04/25 04:49:03;;;;;;;;;32.33;29.67;;;;;13.39;67.54;100174.00;4896440;29;45401;-84
2022/04/25 04:51:30;;;;;;;;;27.33;26.00;;;;;13.39;66.69;100168.66;4912611;28;45520;-85
2022/04/25 04:53:59;;;;;;;;;34.67;30.67;;;;;13.34;65.80;100176.72;4895186;29;45600;-85
2022/04/25 04:56:35;;;;;;;;;34.67;32.33;;;;;13.42;66.51;100184.69;4912468;28;45300;-85
2022/04/25 04:59:01;;;;;;;;;36.33;34.00;;;;;13.27;66.76;100184.72;4895388;29;45522;-85
2022/04/25 05:01:27;;;;;;;;;26.00;25.67;;;;;13.24;67.45;100193.66;4914904;28;45378;-85
2022/04/25 05:03:58;;;;;;;;;25.33;25.33;;;;;13.40;66.72;100197.16;4914213;29;44910;-85
2022/04/25 05:06:28;;;;;;;;;35.00;33.67;;;;;13.47;65.68;100204.25;4914388;29;45396;-85
2022/04/25 05:08:54;;;;;;;;;39.67;34.67;;;;;13.43;65.71;100198.91;4897278;29;45559;-85
2022/04/25 05:11:20;;;;;;;;;35.67;34.00;;;;;13.48;65.46;100195.31;4898281;29;44831;-83
2022/04/25 05:13:45;;;;;;;;;34.00;33.00;;;;;13.48;67.58;100214.03;4915558;28;45158;-83
2022/04/25 05:16:11;;;;;;;;;40.67;34.00;;;;;13.51;66.08;100218.47;4914020;29;46197;-85
2022/04/25 05:18:37;;;;;;;;;31.67;31.33;;;;;13.50;65.84;100214.91;4896307;28;45416;-85
2022/04/25 05:21:03;;;;;;;;;44.33;33.00;;;;;13.49;65.12;100204.22;4912881;29;45680;-85
2022/04/25 05:23:29;;;;;;;;;38.00;33.67;;;;;13.46;65.87;100197.13;4894201;29;45331;-83
2022/04/25 05:25:54;;;;;;;;;37.67;35.33;;;;;13.52;66.03;100206.88;4911504;29;45123;-84
2022/04/25 05:28:22;;;;;;;;;37.67;32.67;;;;;13.73;65.61;100217.41;4894870;29;44840;-85
2022/04/25 05:30:49;;;;;;;;;31.00;26.33;;;;;13.71;65.25;100224.53;4915287;28;45478;-85
2022/04/25 05:33:19;;;;;;;;;34.33;34.00;;;;;13.67;65.37;100205.88;4915525;28;45780;-84
2022/04/25 05:35:44;;;;;;;;;32.00;28.33;;;;;13.62;65.06;100219.28;4917143;28;45280;-85
2022/04/25 05:38:11;;;;;;;;;37.67;34.00;;;;;13.71;64.19;100219.19;4899978;29;45158;-85
2022/04/25 05:40:36;;;;;;;;;43.00;34.67;;;;;13.71;64.49;100227.22;4899201;29;45519;-85
2022/04/25 05:43:04;;;;;;;;;37.33;31.33;;;;;13.83;63.83;100234.28;4912702;29;45429;-84
2022/04/25 05:45:31;;;;;;;;;44.67;36.00;;;;;13.80;63.78;100229.84;4894214;29;47071;-84
2022/04/25 05:47:57;;;;;;;;;43.67;36.00;;;;;13.82;63.50;100237.84;4896869;29;45462;-85
2022/04/25 05:53:08;;;;;;;;;40.33;36.33;;;;;13.79;63.83;100246.78;4895766;29;45415;-85
2022/04/25 05:55:34;;;;;;;;;44.67;37.67;;;;;13.73;63.96;100249.47;4878714;29;45403;-85
2022/04/25 05:58:02;;;;;;;;;40.33;35.00;;;;;13.70;64.00;100245.97;4900078;28;45361;-86
2022/04/25 06:00:28;;;;;;;;;42.33;36.33;;;;;13.77;62.86;100261.03;4884192;29;44847;-86
2022/04/25 06:02:55;;;;;;;;;43.00;37.00;;;;;13.75;62.63;100258.38;4886596;29;45471;-86
2022/04/25 06:05:20;;;;;;;;;40.75;37.75;;;;;13.76;63.49;100270.84;4885740;29;47143;-86
2022/04/25 06:07:54;;;;;;;;;45.67;37.00;;;;;13.85;63.00;100277.03;4899602;29;44767;-85
2022/04/25 06:10:22;;;;;;;;;50.00;37.67;;;;;13.72;64.09;100269.09;4882767;29;45728;-86
2022/04/25 06:12:52;;;;;;;;;47.00;40.00;;;;;13.76;63.58;100281.53;4899531;29;45634;-86
2022/04/25 06:15:21;;;;;;;;;42.33;34.33;;;;;13.72;63.15;100268.22;4881097;29;47785;-83
2022/04/25 06:17:46;;;;;;;;;44.00;37.00;;;;;13.68;62.74;100278.03;4879370;29;45828;-83
2022/04/25 06:20:12;;;;;;;;;44.33;37.67;;;;;13.57;62.23;100255.81;4879211;29;45429;-85
2022/04/25 06:22:38;;;;;;;;;47.00;38.67;;;;;13.77;63.05;100272.59;4877231;29;45519;-84
2022/04/25 06:25:06;;;;;;;;;54.75;44.25;;;;;13.78;62.26;100282.41;4879235;29;47223;-85
2022/04/25 06:27:33;;;;;;;;;46.50;39.25;;;;;13.71;61.95;100263.75;4877462;29;45442;-84
2022/04/25 06:29:58;;;;;;;;;42.00;37.50;;;;;13.75;61.68;100273.53;4896060;29;44877;-84
2022/04/25 06:32:24;;;;;;;;;51.50;39.75;;;;;13.80;62.63;100283.28;4897089;29;45499;-85
2022/04/25 06:34:50;;;;;;;;;48.25;40.25;;;;;13.80;62.00;100291.31;4896005;29;45393;-84
2022/04/25 06:37:16;;;;;;;;;31.75;27.50;;;;;13.80;62.38;100277.06;4895204;29;44785;-84
2022/04/25 06:39:41;;;;;;;;;39.00;35.75;;;;;13.88;61.78;100285.03;4879034;29;44932;-83
2022/04/25 06:42:09;;;;;;;;;42.67;38.33;;;;;14.04;61.21;100293.81;4879789;29;45347;-84
2022/04/25 06:44:38;;;;;;;;;41.50;36.00;;;;;14.04;60.84;100292.06;4880340;29;46946;-85
2022/04/25 06:47:04;;;;;;;;;39.75;34.75;;;;;14.05;60.71;100287.59;4888935;29;45727;-85
2022/04/25 06:49:30;;;;;;;;;47.00;39.50;;;;;14.08;60.48;100288.47;4901060;29;45319;-85
2022/04/25 06:51:59;;;;;;;;;45.25;36.75;;;;;14.10;60.67;100292.00;4900001;29;45478;-85
2022/04/25 06:54:27;;;;;;;;;53.75;42.25;;;;;14.06;60.32;100295.59;4884156;29;47118;-85
2022/04/25 06:56:54;;;;;;;;;47.75;39.00;;;;;13.89;61.09;100287.69;4916430;29;45453;-86
2022/04/25 06:59:21;;;;;;;;;47.50;40.25;;;;;13.77;61.11;100298.47;4898537;29;44783;-85
2022/04/25 07:01:48;;;;;;;;;49.00;39.00;;;;;13.64;60.91;100294.97;4900407;29;45522;-85
2022/04/25 07:04:15;;;;;;;;;46.50;38.50;;;;;13.70;61.24;100292.28;4899999;29;46835;-86
2022/04/25 07:06:41;;;;;;;;;36.50;32.50;;;;;13.76;61.24;100291.34;4901147;29;45837;-86
2022/04/25 07:09:40;;;;;;;;;48.25;39.25;;;;;14.09;61.00;100302.72;4885154;29;45524;-86
2022/04/25 07:12:06;;;;;;;;;51.75;42.50;;;;;14.14;60.79;100309.81;4893969;29;48499;-85
2022/04/25 07:14:35;;;;;;;;;38.33;33.67;;;;;14.27;60.38;100294.53;4902213;29;47040;-86
2022/04/25 07:17:03;;;;;;;;;47.00;39.50;;;;;14.12;59.23;100278.63;4889108;29;45466;-86
2022/04/25 07:19:50;;;;;;;;;51.25;40.75;;;;;14.33;58.99;100289.13;4900390;29;45538;-86
2022/04/25 07:30:46;;;;;;;;;47.50;40.00;;;;;14.57;58.33;100292.53;4902406;29;44837;-86
2022/04/25 07:33:18;;;;;;;;;49.50;40.00;;;;;14.52;58.74;100311.28;4909200;28;45496;-85
2022/04/25 07:36:29;;;;;;;;;50.75;40.75;;;;;14.37;58.48;100290.88;4892975;29;46926;-86
2022/04/25 07:39:13;;;;;;;;;52.00;41.00;;;;;14.69;58.57;100315.63;4815689;29;45649;-86
2022/04/25 07:48:43;;;;;;;;;53.50;43.25;;;;;15.06;57.57;100317.91;4819039;29;45494;-86
2022/04/25 07:51:23;;;;;;;;;46.25;41.00;;;;;14.96;57.38;100304.59;4810739;29;45612;-87
2022/04/25 07:54:14;;;;;;;;;;;;;;;;;;;;;
2022/04/25 07:57:13;;;;;;;;;46.50;39.25;;;;;14.77;56.54;100266.44;4820034;29;64999;-86
2022/04/25 09:30:10;;;;;;;;;44.67;36.33;;;;;17.39;49.38;100341.13;4750254;30;44845;-86
2022/04/25 09:33:04;;;;;;;;;36.33;34.00;;;;;17.77;49.60;100379.78;4789725;29;45380;-84
2022/04/25 09:40:18;;;;;;;;;;;;;;;;;;;;;
2022/04/25 09:50:18;;;;;;;;;46.67;38.33;;;;;17.34;48.65;100391.41;4684786;30;44981;-86
2022/04/25 11:38:10;;;;;;;;;23.67;19.67;;;;;18.05;42.33;100368.44;4711055;23;45486;-84
2022/04/25 11:40:46;;;;;;;;;20.33;17.00;;;;;18.22;41.07;100388.69;4933416;28;45428;-84
2022/04/25 11:43:30;;;;;;;;;22.00;20.33;;;;;18.19;40.91;100382.47;4934511;28;45509;-83
2022/04/25 12:03:12;;;;;;;;;14.00;13.67;;;;;18.57;39.46;100356.44;4875820;29;44857;-86
2022/04/25 12:50:52;;;;;;;;;14.67;12.00;;;;;19.07;35.03;100406.41;3854998;23;46173;-85
2022/04/25 12:53:42;;;;;;;;;10.00;10.00;;;;;19.04;36.49;100414.56;4895268;29;46226;-85
2022/04/25 12:56:27;;;;;;;;;9.33;9.33;;;;;19.03;37.08;100402.00;4890974;29;45443;-85
2022/04/25 12:58:53;;;;;;;;;9.67;9.00;;;;;19.10;36.45;100415.28;4877072;29;44860;-86
2022/04/25 13:02:04;;;;;;;;;11.33;10.33;;;;;19.31;35.85;100404.84;4893894;29;44947;-86
2022/04/25 13:05:03;;;;;;;;;7.67;5.67;;;;;19.30;35.13;100397.69;4861538;29;44927;-86
2022/04/25 13:08:01;;;;;;;;;10.00;10.00;;;;;19.33;35.49;100409.28;4880931;29;45425;-85
2022/04/25 13:10:45;;;;;;;;;;;;;;;;;;;;;
2022/04/25 13:13:59;;;;;;;;;7.00;6.00;;;;;19.52;35.57;100398.84;4875711;29;68272;-85
2022/04/25 13:16:49;;;;;;;;;8.00;8.00;;;;;19.37;33.52;100408.28;4874385;29;45901;-85
2022/04/25 13:19:22;;;;;;;;;8.67;8.00;;;;;18.94;34.57;100370.78;4871333;29;45579;-84
2022/04/25 13:22:10;;;;;;;;;8.00;7.67;;;;;19.08;34.88;100400.94;4875572;28;45477;-84
2022/04/25 13:24:36;;;;;;;;;6.33;6.33;;;;;18.96;34.57;100375.22;4875309;29;45446;-84
2022/04/25 13:27:21;;;;;;;;;8.33;8.33;;;;;19.04;35.26;100358.84;4873614;29;45422;-84
2022/04/25 13:30:08;;;;;;;;;8.33;8.00;;;;;19.49;34.83;100398.97;4871208;29;45992;-85
2022/04/25 13:32:58;;;;;;;;;6.67;6.67;;;;;19.56;33.87;100386.16;4874596;29;45477;-86
2022/04/25 13:35:37;;;;;;;;;5.33;5.33;;;;;19.45;34.58;100388.28;4876086;29;44800;-85
2022/04/25 13:38:31;;;;;;;;;;;;;;;;;;;;;
2022/04/25 13:41:08;;;;;;;;;7.00;7.00;;;;;19.45;34.45;100382.88;4834752;29;74690;-84
2022/04/25 13:43:43;;;;;;;;;7.67;6.67;;;;;19.40;33.60;100385.72;4833574;29;45426;-85
2022/04/25 13:46:25;;;;;;;;;5.33;5.33;;;;;19.38;33.58;100377.66;4836292;29;45461;-86
2022/04/25 13:49:02;;;;;;;;;7.00;7.00;;;;;19.55;34.31;100396.09;4838470;29;44916;-84
2022/04/25 13:52:04;;;;;;;;;5.33;5.00;;;;;19.65;34.26;100396.69;4842049;29;45320;-85
2022/04/25 13:54:42;;;;;;;;;3.67;3.67;;;;;19.74;33.48;100398.28;4882544;29;45222;-83
2022/04/25 13:57:10;;;;;;;;;4.67;4.67;;;;;19.81;33.94;100402.56;4874830;29;44877;-83
2022/04/25 13:59:43;;;;;;;;;5.33;5.33;;;;;20.43;32.67;100371.84;4873721;29;45578;-84
2022/04/25 14:05:23;;;;;;;;;6.00;6.00;;;;;25.61;29.90;100335.03;4865640;29;45154;-84
2022/04/25 14:08:05;;;;;;;;;4.67;4.67;;;;;27.64;28.08;100334.00;4861631;29;45431;-85
2022/04/25 14:10:34;;;;;;;;;5.00;5.00;;;;;29.30;23.76;100347.59;4895456;29;44823;-84
2022/04/25 14:13:02;;;;;;;;;6.00;5.33;;;;;30.66;20.53;100357.84;4881733;29;46689;-85
2022/04/25 14:15:49;;;;;;;;;;;;;;;;;;;;;
2022/04/25 14:18:56;;;;;;;;;6.00;3.33;;;;;33.32;22.33;100362.84;4859303;29;67746;-85
2022/04/25 14:21:26;;;;;;;;;5.33;5.00;;;;;34.25;18.14;100358.28;4893280;29;44941;-86
2022/04/25 14:23:52;;;;;;;;;6.00;6.00;;;;;34.19;20.29;100350.56;4898758;29;45361;-86
2022/04/25 14:26:44;;;;;;;;;5.00;5.00;;;;;34.33;19.63;100365.88;4882047;29;44798;-86
2022/04/25 14:29:11;;;;;;;;;5.67;5.67;;;;;34.19;17.43;100351.44;4877392;29;44870;-85
2022/04/25 14:31:37;;;;;;;;;4.33;4.00;;;;;32.77;19.83;100384.13;4880206;29;45000;-85
2022/04/25 14:34:31;;;;;;;;;4.33;4.00;;;;;30.61;19.01;100379.25;4879822;29;46114;-86
2022/04/25 14:36:58;;;;;;;;;6.00;3.00;;;;;31.47;20.69;100360.78;4844270;29;45480;-85
2022/04/25 14:39:24;;;;;;;;;3.33;3.33;;;;;32.81;20.34;100386.50;4844646;29;45334;-84
2022/04/25 14:41:50;;;;;;;;;3.00;3.00;;;;;33.20;17.58;100374.94;4844791;29;45365;-85
2022/04/25 14:44:19;;;;;;;;;6.00;6.00;;;;;32.57;19.81;100359.16;4843268;29;46537;-85
2022/04/25 14:46:45;;;;;;;;;7.33;6.00;;;;;33.32;17.46;100367.50;4845319;29;45407;-85
2022/04/25 14:54:20;;;;;;;;;5.00;3.67;;;;;33.71;19.75;100357.59;4861134;29;45550;-86
2022/04/25 14:55:11;;;;;;;;;5.67;4.00;;;;;35.56;18.39;100368.97;4872214;29;45361;-86
2022/04/25 14:57:45;;;;;;;;;2.67;2.67;;;;;35.78;13.96;100350.31;4861955;29;44992;-86
2022/04/25 15:00:13;;;;;;;;;5.00;4.00;;;;;35.42;15.91;100330.75;4880073;29;44793;-86
2022/04/25 15:02:42;;;;;;;;;2.00;2.00;;;;;35.60;17.21;100345.53;4878165;29;45749;-85
2022/04/25 15:05:08;;;;;;;;;4.00;4.00;;;;;32.76;16.20;100383.25;4893342;29;45145;-85
2022/04/25 15:07:34;;;;;;;;;4.33;4.33;;;;;29.52;18.57;100374.34;4883933;29;45690;-86
2022/04/25 15:10:02;;;;;;;;;3.00;3.00;;;;;29.75;20.29;100390.19;4881610;29;45156;-86
2022/04/25 15:12:28;;;;;;;;;4.00;4.00;;;;;29.74;19.18;100363.78;4895726;29;45374;-85
2022/04/25 15:14:58;;;;;;;;;4.00;3.33;;;;;27.86;18.87;100395.50;4895857;29;45493;-85
2022/04/25 15:17:24;;;;;;;;;4.67;4.67;;;;;26.08;21.05;100399.66;4895777;29;45397;-86
2022/04/25 15:19:50;;;;;;;;;5.33;3.00;;;;;24.85;21.71;100400.69;4877559;29;45448;-86
2022/04/25 15:23:04;;;;;;;;;0.00;0.00;;;;;25.20;22.17;100392.53;4896314;29;44918;-86
2022/04/25 15:25:34;;;;;;;;;3.67;3.67;;;;;25.71;22.12;100388.03;4878765;29;46686;-86
2022/04/25 15:28:04;;;;;;;;;3.67;3.67;;;;;25.24;22.49;100383.28;4896420;29;45012;-85
2022/04/25 15:30:31;;;;;;;;;2.33;2.33;;;;;24.51;22.25;100396.94;4895446;29;45426;-85
2022/04/25 15:32:58;;;;;;;;;2.33;2.33;;;;;23.95;21.96;100395.06;4880086;29;45811;-85
2022/04/25 15:35:24;;;;;;;;;2.00;1.00;;;;;23.66;22.75;100405.44;4880089;29;46704;-85
2022/04/25 15:37:50;;;;;;;;;1.67;1.67;;;;;23.48;22.98;100400.84;4898689;28;44892;-86
2022/04/25 15:40:18;;;;;;;;;3.33;3.00;;;;;23.24;23.33;100400.09;4896630;29;45476;-85
2022/04/25 15:42:46;;;;;;;;;2.67;2.67;;;;;22.88;23.92;100398.84;4879266;29;45335;-85
2022/04/25 15:45:13;;;;;;;;;3.00;2.67;;;;;22.43;24.37;100383.56;4876209;29;45474;-85
2022/04/25 15:47:39;;;;;;;;;5.00;3.33;;;;;22.32;24.54;100399.41;4883909;29;45549;-85
2022/04/25 15:50:05;;;;;;;;;2.00;2.00;;;;;22.18;24.75;100398.06;4878295;29;45412;-85
2022/04/25 15:52:31;;;;;;;;;3.00;3.00;;;;;21.85;24.29;100397.53;4894559;29;45381;-86
2022/04/25 15:57:43;;;;;;;;;2.00;2.00;;;;;21.14;24.99;100396.50;4887159;29;45469;-86
2022/04/25 16:00:14;;;;;;;;;3.67;3.67;;;;;21.06;25.16;100402.19;4879638;29;44756;-85
2022/04/25 16:02:39;;;;;;;;;4.67;4.67;;;;;20.87;25.54;100407.34;4877803;29;45605;-85
2022/04/25 16:05:05;;;;;;;;;4.00;2.33;;;;;20.83;25.88;100416.50;4895904;29;45454;-85
2022/04/25 16:07:34;;;;;;;;;5.00;5.00;;;;;20.80;26.76;100400.38;4880545;29;44899;-86
2022/04/25 16:14:02;;;;;;;;;5.00;4.67;;;;;20.58;28.56;100417.31;4894575;29;45362;-86
2022/04/25 16:16:28;;;;;;;;;6.67;6.67;;;;;20.34;29.11;100428.84;4874929;29;46337;-85
2022/04/25 16:18:54;;;;;;;;;6.67;6.67;;;;;20.19;29.46;100416.72;4857908;29;44868;-85
2022/04/25 16:21:21;;;;;;;;;6.33;6.33;;;;;20.02;29.76;100421.72;4890214;29;45395;-86
2022/04/25 16:23:51;;;;;;;;;6.00;6.00;;;;;19.91;30.49;100422.94;4884574;29;45398;-86
2022/04/25 16:26:17;;;;;;;;;8.67;8.67;;;;;19.80;30.46;100419.69;4878783;29;46889;-86
2022/04/25 16:28:42;;;;;;;;;7.00;7.00;;;;;19.79;30.43;100409.81;4879426;29;45308;-86
2022/04/25 16:31:09;;;;;;;;;7.00;7.00;;;;;19.92;30.15;100421.16;4878117;29;45323;-85
2022/04/25 16:33:35;;;;;;;;;4.00;4.00;;;;;19.75;30.17;100405.44;4896874;29;44936;-86
2022/04/25 16:40:01;;;;;;;;;5.00;5.00;;;;;20.09;30.44;100426.91;4876238;29;44731;-86
2022/04/25 16:42:26;;;;;;;;;8.00;7.00;;;;;19.92;30.35;100421.16;4877140;29;45442;-85
2022/04/25 16:44:52;;;;;;;;;5.67;5.67;;;;;19.90;30.41;100425.72;4862340;29;45437;-85